sensor_id;sensor_type;location;lat;lon;timestamp;temperature;humidity
35127;DHT22;21300;52.006;5.798;2023-08-31T00:01:09;14.90;91.80
35127;DHT22;21300;52.006;5.798;2023-08-31T00:03:55;14.90;91.80
35127;DHT22;21300;52.006;5.798;2023-08-31T00:06:42;14.90;91.80
35127;DHT22;21300;52.006;5.798;2023-08-31T00:09:30;14.90;91.80
35127;DHT22;21300;52.006;5.798;2023-08-31T00:12:16;14.90;91.80
35127;DHT22;21300;52.006;5.798;2023-08-31T00:15:02;14.90;91.80
35127;DHT22;21300;52.006;5.798;2023-08-31T00:17:50;14.90;91.80
35127;DHT22;21300;52.006;5.798;2023-08-31T00:20:36;14.90;91.80
35127;DHT22;21300;52.006;5.798;2023-08-31T00:23:22;14.80;91.80
35127;DHT22;21300;52.006;5.798;2023-08-31T00:26:08;14.80;91.80
35127;DHT22;21300;52.006;5.798;2023-08-31T00:28:54;14.80;91.80
35127;DHT22;21300;52.006;5.798;2023-08-31T00:31:40;14.80;91.80
35127;DHT22;21300;52.006;5.798;2023-08-31T00:34:28;14.80;91.80
35127;DHT22;21300;52.006;5.798;2023-08-31T00:37:13;14.80;91.80
35127;DHT22;21300;52.006;5.798;2023-08-31T00:39:59;14.70;91.80
35127;DHT22;21300;52.006;5.798;2023-08-31T00:42:45;14.70;91.80
35127;DHT22;21300;52.006;5.798;2023-08-31T00:45:32;14.70;91.80
35127;DHT22;21300;52.006;5.798;2023-08-31T00:48:18;14.70;91.80
35127;DHT22;21300;52.006;5.798;2023-08-31T00:51:04;14.70;91.80
35127;DHT22;21300;52.006;5.798;2023-08-31T00:53:52;14.70;91.90
35127;DHT22;21300;52.006;5.798;2023-08-31T00:56:41;14.70;91.90
35127;DHT22;21300;52.006;5.798;2023-08-31T00:59:26;14.70;91.90
35127;DHT22;21300;52.006;5.798;2023-08-31T01:02:30;14.60;91.90
35127;DHT22;21300;52.006;5.798;2023-08-31T01:11:37;14.60;91.90
35127;DHT22;21300;52.006;5.798;2023-08-31T01:14:59;14.60;91.90
35127;DHT22;21300;52.006;5.798;2023-08-31T01:17:54;14.60;91.90
35127;DHT22;21300;52.006;5.798;2023-08-31T01:24:08;14.50;91.90
35127;DHT22;21300;52.006;5.798;2023-08-31T01:26:54;14.60;91.90
35127;DHT22;21300;52.006;5.798;2023-08-31T01:29:40;14.50;91.90
35127;DHT22;21300;52.006;5.798;2023-08-31T01:32:26;14.50;91.90
35127;DHT22;21300;52.006;5.798;2023-08-31T01:35:14;14.50;91.90
35127;DHT22;21300;52.006;5.798;2023-08-31T01:38:02;14.50;92.00
35127;DHT22;21300;52.006;5.798;2023-08-31T01:41:02;14.50;92.00
35127;DHT22;21300;52.006;5.798;2023-08-31T01:43:49;14.50;92.00
35127;DHT22;21300;52.006;5.798;2023-08-31T01:46:37;14.50;92.00
35127;DHT22;21300;52.006;5.798;2023-08-31T01:49:24;14.50;92.00
35127;DHT22;21300;52.006;5.798;2023-08-31T01:52:10;14.50;92.00
35127;DHT22;21300;52.006;5.798;2023-08-31T01:54:56;14.40;92.00
35127;DHT22;21300;52.006;5.798;2023-08-31T01:57:42;14.40;92.00
35127;DHT22;21300;52.006;5.798;2023-08-31T02:00:28;14.40;92.00
35127;DHT22;21300;52.006;5.798;2023-08-31T02:03:14;14.40;92.00
35127;DHT22;21300;52.006;5.798;2023-08-31T02:06:00;14.40;92.00
35127;DHT22;21300;52.006;5.798;2023-08-31T02:08:45;14.40;92.00
35127;DHT22;21300;52.006;5.798;2023-08-31T02:11:33;14.40;92.00
35127;DHT22;21300;52.006;5.798;2023-08-31T02:14:23;14.40;92.00
35127;DHT22;21300;52.006;5.798;2023-08-31T02:17:09;14.40;92.00
35127;DHT22;21300;52.006;5.798;2023-08-31T02:19:55;14.30;92.00
35127;DHT22;21300;52.006;5.798;2023-08-31T02:22:41;14.40;92.00
35127;DHT22;21300;52.006;5.798;2023-08-31T02:25:27;14.40;92.00
35127;DHT22;21300;52.006;5.798;2023-08-31T02:28:13;14.40;92.00
35127;DHT22;21300;52.006;5.798;2023-08-31T02:31:02;14.40;92.00
35127;DHT22;21300;52.006;5.798;2023-08-31T02:33:48;14.30;92.00
35127;DHT22;21300;52.006;5.798;2023-08-31T02:36:35;14.30;92.00
35127;DHT22;21300;52.006;5.798;2023-08-31T02:39:21;14.30;92.00
35127;DHT22;21300;52.006;5.798;2023-08-31T02:42:07;14.30;92.10
35127;DHT22;21300;52.006;5.798;2023-08-31T02:44:53;14.30;92.10
35127;DHT22;21300;52.006;5.798;2023-08-31T02:47:39;14.30;92.10
35127;DHT22;21300;52.006;5.798;2023-08-31T02:50:25;14.30;92.10
35127;DHT22;21300;52.006;5.798;2023-08-31T02:53:11;14.30;92.10
35127;DHT22;21300;52.006;5.798;2023-08-31T02:55:57;14.30;92.00
35127;DHT22;21300;52.006;5.798;2023-08-31T02:58:43;14.30;92.00
35127;DHT22;21300;52.006;5.798;2023-08-31T03:01:29;14.30;92.00
35127;DHT22;21300;52.006;5.798;2023-08-31T03:04:15;14.30;92.00
35127;DHT22;21300;52.006;5.798;2023-08-31T03:07:03;14.30;92.00
35127;DHT22;21300;52.006;5.798;2023-08-31T03:09:49;14.30;92.00
35127;DHT22;21300;52.006;5.798;2023-08-31T03:12:36;14.30;92.00
35127;DHT22;21300;52.006;5.798;2023-08-31T03:15:22;14.30;92.00
35127;DHT22;21300;52.006;5.798;2023-08-31T03:18:08;14.30;92.00
35127;DHT22;21300;52.006;5.798;2023-08-31T03:20:55;14.30;92.00
35127;DHT22;21300;52.006;5.798;2023-08-31T03:23:41;14.30;92.00
35127;DHT22;21300;52.006;5.798;2023-08-31T03:26:27;14.20;92.00
35127;DHT22;21300;52.006;5.798;2023-08-31T03:29:13;14.20;92.00
35127;DHT22;21300;52.006;5.798;2023-08-31T03:32:00;14.20;92.00
35127;DHT22;21300;52.006;5.798;2023-08-31T03:34:46;14.20;92.00
35127;DHT22;21300;52.006;5.798;2023-08-31T03:37:32;14.20;92.10
35127;DHT22;21300;52.006;5.798;2023-08-31T03:40:19;14.20;92.10
35127;DHT22;21300;52.006;5.798;2023-08-31T03:43:05;14.20;92.10
35127;DHT22;21300;52.006;5.798;2023-08-31T03:45:54;14.20;92.00
35127;DHT22;21300;52.006;5.798;2023-08-31T03:48:43;14.20;92.10
35127;DHT22;21300;52.006;5.798;2023-08-31T03:51:29;14.20;92.10
35127;DHT22;21300;52.006;5.798;2023-08-31T03:54:15;14.20;92.10
35127;DHT22;21300;52.006;5.798;2023-08-31T03:57:00;14.20;92.10
35127;DHT22;21300;52.006;5.798;2023-08-31T03:59:46;14.20;92.00
35127;DHT22;21300;52.006;5.798;2023-08-31T04:02:33;14.20;92.10
35127;DHT22;21300;52.006;5.798;2023-08-31T04:05:19;14.20;92.10
35127;DHT22;21300;52.006;5.798;2023-08-31T04:08:05;14.20;92.00
35127;DHT22;21300;52.006;5.798;2023-08-31T04:10:51;14.20;92.00
35127;DHT22;21300;52.006;5.798;2023-08-31T04:13:37;14.20;92.10
35127;DHT22;21300;52.006;5.798;2023-08-31T04:16:22;14.20;92.10
35127;DHT22;21300;52.006;5.798;2023-08-31T04:19:08;14.10;92.00
35127;DHT22;21300;52.006;5.798;2023-08-31T04:21:54;14.20;92.10
35127;DHT22;21300;52.006;5.798;2023-08-31T04:24:41;14.20;92.00
35127;DHT22;21300;52.006;5.798;2023-08-31T04:27:26;14.20;92.00
35127;DHT22;21300;52.006;5.798;2023-08-31T04:30:13;14.10;92.00
35127;DHT22;21300;52.006;5.798;2023-08-31T04:32:59;14.20;92.10
35127;DHT22;21300;52.006;5.798;2023-08-31T04:35:45;14.10;92.00
35127;DHT22;21300;52.006;5.798;2023-08-31T04:38:31;14.10;92.00
35127;DHT22;21300;52.006;5.798;2023-08-31T04:41:18;14.20;92.00
35127;DHT22;21300;52.006;5.798;2023-08-31T04:44:04;14.20;92.00
35127;DHT22;21300;52.006;5.798;2023-08-31T04:46:50;14.10;92.00
35127;DHT22;21300;52.006;5.798;2023-08-31T04:49:36;14.10;92.00
35127;DHT22;21300;52.006;5.798;2023-08-31T04:52:22;14.10;92.00
35127;DHT22;21300;52.006;5.798;2023-08-31T04:55:08;14.10;92.00
35127;DHT22;21300;52.006;5.798;2023-08-31T04:57:53;14.10;92.00
35127;DHT22;21300;52.006;5.798;2023-08-31T05:00:39;14.10;92.00
35127;DHT22;21300;52.006;5.798;2023-08-31T05:03:25;14.10;92.00
35127;DHT22;21300;52.006;5.798;2023-08-31T05:06:11;14.10;92.10
35127;DHT22;21300;52.006;5.798;2023-08-31T05:08:57;14.10;92.40
35127;DHT22;21300;52.006;5.798;2023-08-31T05:11:43;14.10;92.40
35127;DHT22;21300;52.006;5.798;2023-08-31T05:14:47;14.10;92.40
35127;DHT22;21300;52.006;5.798;2023-08-31T05:17:33;14.10;92.30
35127;DHT22;21300;52.006;5.798;2023-08-31T05:20:20;14.10;92.30
35127;DHT22;21300;52.006;5.798;2023-08-31T05:23:08;14.10;92.30
35127;DHT22;21300;52.006;5.798;2023-08-31T05:25:54;14.10;92.30
35127;DHT22;21300;52.006;5.798;2023-08-31T05:28:42;14.10;92.30
35127;DHT22;21300;52.006;5.798;2023-08-31T05:31:29;14.00;92.20
35127;DHT22;21300;52.006;5.798;2023-08-31T05:34:21;14.10;92.20
35127;DHT22;21300;52.006;5.798;2023-08-31T05:37:07;14.10;92.20
35127;DHT22;21300;52.006;5.798;2023-08-31T05:39:53;14.10;92.20
35127;DHT22;21300;52.006;5.798;2023-08-31T05:42:38;14.10;92.20
35127;DHT22;21300;52.006;5.798;2023-08-31T05:45:24;14.00;92.30
35127;DHT22;21300;52.006;5.798;2023-08-31T05:48:10;14.00;92.30
35127;DHT22;21300;52.006;5.798;2023-08-31T05:50:56;14.00;92.20
35127;DHT22;21300;52.006;5.798;2023-08-31T05:53:42;14.10;92.30
35127;DHT22;21300;52.006;5.798;2023-08-31T05:56:28;14.00;92.20
35127;DHT22;21300;52.006;5.798;2023-08-31T05:59:14;14.00;92.20
35127;DHT22;21300;52.006;5.798;2023-08-31T06:02:00;14.10;92.30
35127;DHT22;21300;52.006;5.798;2023-08-31T06:04:46;14.00;92.30
35127;DHT22;21300;52.006;5.798;2023-08-31T06:07:32;14.00;92.20
35127;DHT22;21300;52.006;5.798;2023-08-31T06:10:21;14.00;92.30
35127;DHT22;21300;52.006;5.798;2023-08-31T06:13:08;14.10;92.30
35127;DHT22;21300;52.006;5.798;2023-08-31T06:15:54;14.00;92.70
35127;DHT22;21300;52.006;5.798;2023-08-31T06:18:41;13.90;93.60
35127;DHT22;21300;52.006;5.798;2023-08-31T06:21:29;13.90;93.60
35127;DHT22;21300;52.006;5.798;2023-08-31T06:24:15;14.00;93.40
35127;DHT22;21300;52.006;5.798;2023-08-31T06:27:00;14.00;93.20
35127;DHT22;21300;52.006;5.798;2023-08-31T06:29:46;14.00;93.10
35127;DHT22;21300;52.006;5.798;2023-08-31T06:32:32;14.00;93.00
35127;DHT22;21300;52.006;5.798;2023-08-31T06:35:18;14.10;93.00
35127;DHT22;21300;52.006;5.798;2023-08-31T06:38:05;14.10;92.90
35127;DHT22;21300;52.006;5.798;2023-08-31T06:40:51;14.10;93.10
35127;DHT22;21300;52.006;5.798;2023-08-31T06:43:39;14.10;93.60
35127;DHT22;21300;52.006;5.798;2023-08-31T06:46:25;14.10;93.50
35127;DHT22;21300;52.006;5.798;2023-08-31T06:49:11;14.10;93.50
35127;DHT22;21300;52.006;5.798;2023-08-31T06:51:56;14.10;93.50
35127;DHT22;21300;52.006;5.798;2023-08-31T06:54:42;14.10;93.40
35127;DHT22;21300;52.006;5.798;2023-08-31T06:57:28;14.10;93.40
35127;DHT22;21300;52.006;5.798;2023-08-31T07:00:14;14.10;93.40
35127;DHT22;21300;52.006;5.798;2023-08-31T07:03:00;14.10;93.30
35127;DHT22;21300;52.006;5.798;2023-08-31T07:05:46;14.20;93.40
35127;DHT22;21300;52.006;5.798;2023-08-31T07:08:32;14.20;93.30
35127;DHT22;21300;52.006;5.798;2023-08-31T07:11:18;14.20;93.30
35127;DHT22;21300;52.006;5.798;2023-08-31T07:14:04;14.20;93.30
35127;DHT22;21300;52.006;5.798;2023-08-31T07:16:50;14.20;93.30
35127;DHT22;21300;52.006;5.798;2023-08-31T07:19:36;14.20;93.30
35127;DHT22;21300;52.006;5.798;2023-08-31T07:22:22;14.20;93.20
35127;DHT22;21300;52.006;5.798;2023-08-31T07:25:08;14.20;93.20
35127;DHT22;21300;52.006;5.798;2023-08-31T07:27:54;14.20;93.20
35127;DHT22;21300;52.006;5.798;2023-08-31T07:30:40;14.20;93.20
35127;DHT22;21300;52.006;5.798;2023-08-31T07:33:26;14.20;93.10
35127;DHT22;21300;52.006;5.798;2023-08-31T07:36:12;14.20;93.10
35127;DHT22;21300;52.006;5.798;2023-08-31T07:38:58;14.20;93.10
35127;DHT22;21300;52.006;5.798;2023-08-31T07:41:44;14.20;93.20
35127;DHT22;21300;52.006;5.798;2023-08-31T07:44:30;14.30;93.40
35127;DHT22;21300;52.006;5.798;2023-08-31T07:47:16;14.30;93.10
35127;DHT22;21300;52.006;5.798;2023-08-31T07:50:02;14.30;93.10
35127;DHT22;21300;52.006;5.798;2023-08-31T07:52:48;14.30;93.10
35127;DHT22;21300;52.006;5.798;2023-08-31T07:55:34;14.30;93.10
35127;DHT22;21300;52.006;5.798;2023-08-31T07:58:22;14.30;93.10
35127;DHT22;21300;52.006;5.798;2023-08-31T08:01:08;14.30;93.00
35127;DHT22;21300;52.006;5.798;2023-08-31T08:03:53;14.30;93.10
35127;DHT22;21300;52.006;5.798;2023-08-31T08:06:39;14.30;93.00
35127;DHT22;21300;52.006;5.798;2023-08-31T08:09:25;14.40;93.00
35127;DHT22;21300;52.006;5.798;2023-08-31T08:12:11;14.40;93.00
35127;DHT22;21300;52.006;5.798;2023-08-31T08:14:57;14.40;93.00
35127;DHT22;21300;52.006;5.798;2023-08-31T08:17:43;14.40;93.00
35127;DHT22;21300;52.006;5.798;2023-08-31T08:20:28;14.40;93.00
35127;DHT22;21300;52.006;5.798;2023-08-31T08:23:14;14.40;93.00
35127;DHT22;21300;52.006;5.798;2023-08-31T08:26:00;14.40;93.30
35127;DHT22;21300;52.006;5.798;2023-08-31T08:28:46;14.50;92.90
35127;DHT22;21300;52.006;5.798;2023-08-31T08:31:32;14.40;92.90
35127;DHT22;21300;52.006;5.798;2023-08-31T08:34:18;14.50;92.90
35127;DHT22;21300;52.006;5.798;2023-08-31T08:37:04;14.50;92.90
35127;DHT22;21300;52.006;5.798;2023-08-31T08:39:50;14.50;92.90
35127;DHT22;21300;52.006;5.798;2023-08-31T08:42:41;14.50;92.90
35127;DHT22;21300;52.006;5.798;2023-08-31T08:45:36;14.60;92.90
35127;DHT22;21300;52.006;5.798;2023-08-31T08:48:23;14.60;92.90
35127;DHT22;21300;52.006;5.798;2023-08-31T08:51:10;14.60;92.90
35127;DHT22;21300;52.006;5.798;2023-08-31T08:53:58;14.60;93.00
35127;DHT22;21300;52.006;5.798;2023-08-31T08:56:44;14.70;92.90
35127;DHT22;21300;52.006;5.798;2023-08-31T08:59:31;14.70;93.10
35127;DHT22;21300;52.006;5.798;2023-08-31T09:02:17;14.70;93.00
35127;DHT22;21300;52.006;5.798;2023-08-31T09:05:03;14.70;92.90
35127;DHT22;21300;52.006;5.798;2023-08-31T09:08:06;14.80;92.90
35127;DHT22;21300;52.006;5.798;2023-08-31T09:10:58;14.80;92.90
35127;DHT22;21300;52.006;5.798;2023-08-31T09:13:44;14.80;92.90
35127;DHT22;21300;52.006;5.798;2023-08-31T09:16:30;14.80;92.90
35127;DHT22;21300;52.006;5.798;2023-08-31T09:19:19;14.90;92.80
35127;DHT22;21300;52.006;5.798;2023-08-31T09:22:05;14.90;92.80
35127;DHT22;21300;52.006;5.798;2023-08-31T09:24:51;14.90;92.80
35127;DHT22;21300;52.006;5.798;2023-08-31T09:27:38;15.00;92.90
35127;DHT22;21300;52.006;5.798;2023-08-31T09:30:24;15.00;92.80
35127;DHT22;21300;52.006;5.798;2023-08-31T09:33:14;15.10;92.90
35127;DHT22;21300;52.006;5.798;2023-08-31T09:36:02;15.10;92.90
35127;DHT22;21300;52.006;5.798;2023-08-31T09:38:50;15.10;92.90
35127;DHT22;21300;52.006;5.798;2023-08-31T09:41:52;15.20;92.80
35127;DHT22;21300;52.006;5.798;2023-08-31T09:44:42;15.20;92.80
35127;DHT22;21300;52.006;5.798;2023-08-31T09:47:28;15.30;92.80
35127;DHT22;21300;52.006;5.798;2023-08-31T09:50:14;15.30;92.70
35127;DHT22;21300;52.006;5.798;2023-08-31T09:53:03;15.40;92.60
35127;DHT22;21300;52.006;5.798;2023-08-31T09:55:51;15.40;92.80
35127;DHT22;21300;52.006;5.798;2023-08-31T09:58:37;15.40;92.80
35127;DHT22;21300;52.006;5.798;2023-08-31T10:01:23;15.50;92.80
35127;DHT22;21300;52.006;5.798;2023-08-31T10:04:09;15.60;92.80
35127;DHT22;21300;52.006;5.798;2023-08-31T10:06:55;15.60;92.80
35127;DHT22;21300;52.006;5.798;2023-08-31T10:09:41;15.60;92.80
35127;DHT22;21300;52.006;5.798;2023-08-31T10:12:27;15.70;92.90
35127;DHT22;21300;52.006;5.798;2023-08-31T10:15:14;15.70;92.80
35127;DHT22;21300;52.006;5.798;2023-08-31T10:18:01;15.70;92.60
35127;DHT22;21300;52.006;5.798;2023-08-31T10:20:48;15.80;92.60
35127;DHT22;21300;52.006;5.798;2023-08-31T10:23:34;15.80;92.50
35127;DHT22;21300;52.006;5.798;2023-08-31T10:26:25;15.90;92.50
35127;DHT22;21300;52.006;5.798;2023-08-31T10:29:26;15.90;92.30
35127;DHT22;21300;52.006;5.798;2023-08-31T10:32:19;16.00;92.30
35127;DHT22;21300;52.006;5.798;2023-08-31T10:35:10;16.00;92.20
35127;DHT22;21300;52.006;5.798;2023-08-31T10:38:26;16.00;92.20
35127;DHT22;21300;52.006;5.798;2023-08-31T10:43:58;16.10;92.50
35127;DHT22;21300;52.006;5.798;2023-08-31T10:46:44;16.10;92.60
35127;DHT22;21300;52.006;5.798;2023-08-31T10:49:30;16.20;92.50
35127;DHT22;21300;52.006;5.798;2023-08-31T10:52:19;16.20;92.60
35127;DHT22;21300;52.006;5.798;2023-08-31T10:55:05;16.20;92.60
35127;DHT22;21300;52.006;5.798;2023-08-31T10:57:51;16.30;92.60
35127;DHT22;21300;52.006;5.798;2023-08-31T11:00:51;16.30;92.50
35127;DHT22;21300;52.006;5.798;2023-08-31T11:03:57;16.30;92.50
35127;DHT22;21300;52.006;5.798;2023-08-31T11:06:44;16.40;92.60
35127;DHT22;21300;52.006;5.798;2023-08-31T11:09:29;16.50;92.50
35127;DHT22;21300;52.006;5.798;2023-08-31T11:12:16;16.50;92.50
35127;DHT22;21300;52.006;5.798;2023-08-31T11:15:03;16.60;92.30
35127;DHT22;21300;52.006;5.798;2023-08-31T11:17:50;16.60;92.30
35127;DHT22;21300;52.006;5.798;2023-08-31T11:20:37;16.70;92.20
35127;DHT22;21300;52.006;5.798;2023-08-31T11:23:23;16.70;92.30
35127;DHT22;21300;52.006;5.798;2023-08-31T11:26:09;16.70;92.20
35127;DHT22;21300;52.006;5.798;2023-08-31T11:28:58;16.80;92.40
35127;DHT22;21300;52.006;5.798;2023-08-31T11:31:44;16.80;92.30
35127;DHT22;21300;52.006;5.798;2023-08-31T11:34:30;16.90;92.30
35127;DHT22;21300;52.006;5.798;2023-08-31T11:37:16;16.90;92.20
35127;DHT22;21300;52.006;5.798;2023-08-31T11:40:03;17.00;92.30
35127;DHT22;21300;52.006;5.798;2023-08-31T11:42:51;17.00;92.20
35127;DHT22;21300;52.006;5.798;2023-08-31T11:45:38;17.10;92.20
35127;DHT22;21300;52.006;5.798;2023-08-31T11:48:25;17.10;92.10
35127;DHT22;21300;52.006;5.798;2023-08-31T11:51:11;17.10;92.20
35127;DHT22;21300;52.006;5.798;2023-08-31T11:53:57;17.20;92.00
35127;DHT22;21300;52.006;5.798;2023-08-31T11:56:46;17.20;92.10
35127;DHT22;21300;52.006;5.798;2023-08-31T11:59:38;17.30;92.00
35127;DHT22;21300;52.006;5.798;2023-08-31T12:02:24;17.30;92.00
35127;DHT22;21300;52.006;5.798;2023-08-31T12:05:10;17.30;91.80
35127;DHT22;21300;52.006;5.798;2023-08-31T12:07:56;17.40;91.80
35127;DHT22;21300;52.006;5.798;2023-08-31T12:10:42;17.40;91.90
35127;DHT22;21300;52.006;5.798;2023-08-31T12:13:28;17.40;92.00
35127;DHT22;21300;52.006;5.798;2023-08-31T12:16:14;17.50;91.90
35127;DHT22;21300;52.006;5.798;2023-08-31T12:19:05;17.50;91.90
35127;DHT22;21300;52.006;5.798;2023-08-31T12:21:51;17.60;91.90
35127;DHT22;21300;52.006;5.798;2023-08-31T12:24:37;17.60;91.80
35127;DHT22;21300;52.006;5.798;2023-08-31T12:27:24;17.60;91.70
35127;DHT22;21300;52.006;5.798;2023-08-31T12:30:11;17.70;91.70
35127;DHT22;21300;52.006;5.798;2023-08-31T12:32:57;17.70;91.80
35127;DHT22;21300;52.006;5.798;2023-08-31T12:35:48;17.70;91.70
35127;DHT22;21300;52.006;5.798;2023-08-31T12:38:34;17.80;92.00
35127;DHT22;21300;52.006;5.798;2023-08-31T12:41:20;17.80;91.40
35127;DHT22;21300;52.006;5.798;2023-08-31T12:44:07;17.80;91.60
35127;DHT22;21300;52.006;5.798;2023-08-31T12:46:53;17.80;91.60
35127;DHT22;21300;52.006;5.798;2023-08-31T12:49:40;17.90;91.70
35127;DHT22;21300;52.006;5.798;2023-08-31T12:52:25;17.90;91.60
35127;DHT22;21300;52.006;5.798;2023-08-31T12:55:14;17.90;91.60
35127;DHT22;21300;52.006;5.798;2023-08-31T12:58:00;17.90;91.60
35127;DHT22;21300;52.006;5.798;2023-08-31T13:00:46;17.90;91.70
35127;DHT22;21300;52.006;5.798;2023-08-31T13:03:34;18.00;91.50
35127;DHT22;21300;52.006;5.798;2023-08-31T13:06:20;18.00;91.60
35127;DHT22;21300;52.006;5.798;2023-08-31T13:09:06;18.00;91.60
35127;DHT22;21300;52.006;5.798;2023-08-31T13:11:54;18.10;91.70
35127;DHT22;21300;52.006;5.798;2023-08-31T13:14:40;18.00;91.60
35127;DHT22;21300;52.006;5.798;2023-08-31T13:17:26;18.00;91.60
35127;DHT22;21300;52.006;5.798;2023-08-31T13:20:12;18.10;91.50
35127;DHT22;21300;52.006;5.798;2023-08-31T13:22:58;18.10;91.50
35127;DHT22;21300;52.006;5.798;2023-08-31T13:25:44;18.10;91.50
35127;DHT22;21300;52.006;5.798;2023-08-31T13:28:30;18.10;91.50
35127;DHT22;21300;52.006;5.798;2023-08-31T13:31:16;18.20;91.60
35127;DHT22;21300;52.006;5.798;2023-08-31T13:34:02;18.20;91.60
35127;DHT22;21300;52.006;5.798;2023-08-31T13:36:49;18.20;91.60
35127;DHT22;21300;52.006;5.798;2023-08-31T13:39:36;18.20;91.60
35127;DHT22;21300;52.006;5.798;2023-08-31T13:42:22;18.20;91.50
35127;DHT22;21300;52.006;5.798;2023-08-31T13:45:08;18.20;91.50
35127;DHT22;21300;52.006;5.798;2023-08-31T13:47:54;18.20;91.40
35127;DHT22;21300;52.006;5.798;2023-08-31T13:50:40;18.30;91.40
35127;DHT22;21300;52.006;5.798;2023-08-31T13:53:26;18.30;91.50
35127;DHT22;21300;52.006;5.798;2023-08-31T13:56:12;18.30;91.50
35127;DHT22;21300;52.006;5.798;2023-08-31T13:58:58;18.30;91.40
35127;DHT22;21300;52.006;5.798;2023-08-31T14:01:44;18.30;91.30
35127;DHT22;21300;52.006;5.798;2023-08-31T14:04:30;18.30;91.30
35127;DHT22;21300;52.006;5.798;2023-08-31T14:07:16;18.30;91.40
35127;DHT22;21300;52.006;5.798;2023-08-31T14:10:03;18.40;91.40
35127;DHT22;21300;52.006;5.798;2023-08-31T14:12:52;18.40;91.30
35127;DHT22;21300;52.006;5.798;2023-08-31T14:15:38;18.40;91.30
35127;DHT22;21300;52.006;5.798;2023-08-31T14:18:31;18.40;91.40
35127;DHT22;21300;52.006;5.798;2023-08-31T14:21:17;18.50;91.40
35127;DHT22;21300;52.006;5.798;2023-08-31T14:24:03;18.50;91.40
35127;DHT22;21300;52.006;5.798;2023-08-31T14:26:49;18.50;91.30
35127;DHT22;21300;52.006;5.798;2023-08-31T14:29:37;18.50;91.40
35127;DHT22;21300;52.006;5.798;2023-08-31T14:32:23;18.50;91.30
35127;DHT22;21300;52.006;5.798;2023-08-31T14:35:09;18.50;91.30
35127;DHT22;21300;52.006;5.798;2023-08-31T14:37:56;18.50;91.30
35127;DHT22;21300;52.006;5.798;2023-08-31T14:40:42;18.60;91.40
35127;DHT22;21300;52.006;5.798;2023-08-31T14:43:28;18.60;91.40
35127;DHT22;21300;52.006;5.798;2023-08-31T14:46:14;18.60;91.30
35127;DHT22;21300;52.006;5.798;2023-08-31T14:49:00;18.60;90.80
35127;DHT22;21300;52.006;5.798;2023-08-31T14:51:46;18.70;90.80
35127;DHT22;21300;52.006;5.798;2023-08-31T14:54:33;18.70;90.90
35127;DHT22;21300;52.006;5.798;2023-08-31T14:57:19;18.70;90.90
35127;DHT22;21300;52.006;5.798;2023-08-31T15:00:05;18.70;90.90
35127;DHT22;21300;52.006;5.798;2023-08-31T15:02:52;18.70;91.00
35127;DHT22;21300;52.006;5.798;2023-08-31T15:05:38;18.70;90.90
35127;DHT22;21300;52.006;5.798;2023-08-31T15:08:40;18.70;90.90
35127;DHT22;21300;52.006;5.798;2023-08-31T15:11:29;18.80;90.00
35127;DHT22;21300;52.006;5.798;2023-08-31T15:14:15;18.80;90.30
35127;DHT22;21300;52.006;5.798;2023-08-31T15:17:01;18.80;90.10
35127;DHT22;21300;52.006;5.798;2023-08-31T15:19:47;18.80;90.30
35127;DHT22;21300;52.006;5.798;2023-08-31T15:22:32;18.80;90.30
35127;DHT22;21300;52.006;5.798;2023-08-31T15:25:18;18.80;90.20
35127;DHT22;21300;52.006;5.798;2023-08-31T15:28:04;18.80;90.30
35127;DHT22;21300;52.006;5.798;2023-08-31T15:30:50;18.90;90.10
35127;DHT22;21300;52.006;5.798;2023-08-31T15:33:37;18.90;90.30
35127;DHT22;21300;52.006;5.798;2023-08-31T15:36:23;18.90;90.20
35127;DHT22;21300;52.006;5.798;2023-08-31T15:39:09;18.90;90.20
35127;DHT22;21300;52.006;5.798;2023-08-31T15:41:58;18.90;90.20
35127;DHT22;21300;52.006;5.798;2023-08-31T15:44:44;18.90;90.20
35127;DHT22;21300;52.006;5.798;2023-08-31T15:47:30;18.90;90.20
35127;DHT22;21300;52.006;5.798;2023-08-31T15:50:16;18.90;90.20
35127;DHT22;21300;52.006;5.798;2023-08-31T15:53:02;18.90;90.10
35127;DHT22;21300;52.006;5.798;2023-08-31T15:55:49;18.90;90.10
35127;DHT22;21300;52.006;5.798;2023-08-31T15:58:35;18.90;90.10
35127;DHT22;21300;52.006;5.798;2023-08-31T16:01:21;18.90;90.10
35127;DHT22;21300;52.006;5.798;2023-08-31T16:04:06;18.90;90.10
35127;DHT22;21300;52.006;5.798;2023-08-31T16:06:52;18.90;90.00
35127;DHT22;21300;52.006;5.798;2023-08-31T16:09:39;18.90;90.10
35127;DHT22;21300;52.006;5.798;2023-08-31T16:12:25;18.90;90.00
35127;DHT22;21300;52.006;5.798;2023-08-31T16:15:13;18.90;90.00
35127;DHT22;21300;52.006;5.798;2023-08-31T16:17:59;18.90;90.00
35127;DHT22;21300;52.006;5.798;2023-08-31T16:20:45;18.90;90.00
35127;DHT22;21300;52.006;5.798;2023-08-31T16:23:34;18.90;90.00
35127;DHT22;21300;52.006;5.798;2023-08-31T16:26:19;18.90;90.00
35127;DHT22;21300;52.006;5.798;2023-08-31T16:29:05;18.90;89.90
35127;DHT22;21300;52.006;5.798;2023-08-31T16:31:55;18.90;89.90
35127;DHT22;21300;52.006;5.798;2023-08-31T16:34:41;18.90;89.90
35127;DHT22;21300;52.006;5.798;2023-08-31T16:37:27;18.90;89.90
35127;DHT22;21300;52.006;5.798;2023-08-31T16:40:13;18.90;89.80
35127;DHT22;21300;52.006;5.798;2023-08-31T16:42:59;18.90;89.70
35127;DHT22;21300;52.006;5.798;2023-08-31T16:45:45;18.90;89.70
35127;DHT22;21300;52.006;5.798;2023-08-31T16:48:31;18.90;89.70
35127;DHT22;21300;52.006;5.798;2023-08-31T16:51:17;18.90;89.70
35127;DHT22;21300;52.006;5.798;2023-08-31T16:54:03;18.90;89.80
35127;DHT22;21300;52.006;5.798;2023-08-31T16:56:49;18.90;89.70
35127;DHT22;21300;52.006;5.798;2023-08-31T16:59:36;18.80;89.70
35127;DHT22;21300;52.006;5.798;2023-08-31T17:02:22;18.80;89.80
35127;DHT22;21300;52.006;5.798;2023-08-31T17:05:08;18.80;89.80
35127;DHT22;21300;52.006;5.798;2023-08-31T17:07:54;18.80;89.90
35127;DHT22;21300;52.006;5.798;2023-08-31T17:10:40;18.80;89.90
35127;DHT22;21300;52.006;5.798;2023-08-31T17:13:26;18.80;90.00
35127;DHT22;21300;52.006;5.798;2023-08-31T17:16:12;18.80;90.00
35127;DHT22;21300;52.006;5.798;2023-08-31T17:18:58;18.80;90.00
35127;DHT22;21300;52.006;5.798;2023-08-31T17:21:43;18.80;90.00
35127;DHT22;21300;52.006;5.798;2023-08-31T17:24:29;18.70;90.00
35127;DHT22;21300;52.006;5.798;2023-08-31T17:27:15;18.70;90.00
35127;DHT22;21300;52.006;5.798;2023-08-31T17:30:02;18.80;90.10
35127;DHT22;21300;52.006;5.798;2023-08-31T17:32:52;18.70;90.10
35127;DHT22;21300;52.006;5.798;2023-08-31T17:35:38;18.70;90.10
35127;DHT22;21300;52.006;5.798;2023-08-31T17:38:24;18.70;90.10
35127;DHT22;21300;52.006;5.798;2023-08-31T17:41:10;18.70;90.10
35127;DHT22;21300;52.006;5.798;2023-08-31T17:43:56;18.70;90.20
35127;DHT22;21300;52.006;5.798;2023-08-31T17:46:42;18.70;90.20